sensor_id;sensor_type;location;lat;lon;timestamp;P1;durP1;ratioP1;P2;durP2;ratioP2
37529;SDS011;23374;52.758;6.872;2022-10-15T00:01:45;49.13;;;19.53;;
37529;SDS011;23374;52.758;6.872;2022-10-15T00:04:05;54.90;;;18.37;;
37529;SDS011;23374;52.758;6.872;2022-10-15T00:06:25;60.70;;;19.43;;
37529;SDS011;23374;52.758;6.872;2022-10-15T00:08:46;71.20;;;19.93;;
37529;SDS011;23374;52.758;6.872;2022-10-15T00:11:09;70.83;;;20.50;;
37529;SDS011;23374;52.758;6.872;2022-10-15T00:13:35;60.67;;;19.47;;
37529;SDS011;23374;52.758;6.872;2022-10-15T00:15:55;53.37;;;21.37;;
37529;SDS011;23374;52.758;6.872;2022-10-15T00:18:16;78.03;;;20.73;;
37529;SDS011;23374;52.758;6.872;2022-10-15T00:20:40;71.90;;;21.67;;
37529;SDS011;23374;52.758;6.872;2022-10-15T00:23:00;77.77;;;21.13;;
37529;SDS011;23374;52.758;6.872;2022-10-15T00:25:20;68.53;;;21.57;;
37529;SDS011;23374;52.758;6.872;2022-10-15T00:27:40;105.57;;;22.33;;
37529;SDS011;23374;52.758;6.872;2022-10-15T00:30:01;60.80;;;20.67;;
37529;SDS011;23374;52.758;6.872;2022-10-15T00:32:22;63.23;;;22.17;;
37529;SDS011;23374;52.758;6.872;2022-10-15T00:34:42;66.07;;;21.87;;
37529;SDS011;23374;52.758;6.872;2022-10-15T00:37:03;67.43;;;21.90;;
37529;SDS011;23374;52.758;6.872;2022-10-15T00:39:23;59.37;;;21.10;;
37529;SDS011;23374;52.758;6.872;2022-10-15T00:41:44;65.93;;;21.17;;
37529;SDS011;23374;52.758;6.872;2022-10-15T00:47:37;60.10;;;22.23;;
37529;SDS011;23374;52.758;6.872;2022-10-15T00:50:12;86.97;;;22.27;;
37529;SDS011;23374;52.758;6.872;2022-10-15T00:55:39;116.23;;;22.90;;
37529;SDS011;23374;52.758;6.872;2022-10-15T00:58:07;103.33;;;22.83;;
37529;SDS011;23374;52.758;6.872;2022-10-15T01:00:32;76.10;;;22.07;;
37529;SDS011;23374;52.758;6.872;2022-10-15T01:02:53;78.27;;;23.03;;
37529;SDS011;23374;52.758;6.872;2022-10-15T01:05:14;83.20;;;22.60;;
37529;SDS011;23374;52.758;6.872;2022-10-15T01:07:36;81.03;;;23.23;;
37529;SDS011;23374;52.758;6.872;2022-10-15T01:09:56;104.37;;;22.67;;
37529;SDS011;23374;52.758;6.872;2022-10-15T01:27:40;67.23;;;20.43;;
37529;SDS011;23374;52.758;6.872;2022-10-15T01:30:27;74.47;;;20.50;;
37529;SDS011;23374;52.758;6.872;2022-10-15T01:33:14;94.93;;;21.13;;
37529;SDS011;23374;52.758;6.872;2022-10-15T01:35:57;83.17;;;20.23;;
37529;SDS011;23374;52.758;6.872;2022-10-15T01:38:45;68.10;;;18.97;;
37529;SDS011;23374;52.758;6.872;2022-10-15T01:46:20;67.80;;;20.90;;
37529;SDS011;23374;52.758;6.872;2022-10-15T01:48:45;72.87;;;18.93;;
37529;SDS011;23374;52.758;6.872;2022-10-15T01:51:07;83.73;;;21.10;;
37529;SDS011;23374;52.758;6.872;2022-10-15T01:53:30;69.17;;;20.83;;
37529;SDS011;23374;52.758;6.872;2022-10-15T01:55:56;73.87;;;21.07;;
37529;SDS011;23374;52.758;6.872;2022-10-15T01:58:18;65.10;;;19.53;;
37529;SDS011;23374;52.758;6.872;2022-10-15T02:00:41;78.90;;;20.33;;
37529;SDS011;23374;52.758;6.872;2022-10-15T02:03:03;65.50;;;21.10;;
37529;SDS011;23374;52.758;6.872;2022-10-15T02:05:25;68.50;;;21.20;;
37529;SDS011;23374;52.758;6.872;2022-10-15T02:09:16;78.47;;;21.37;;
37529;SDS011;23374;52.758;6.872;2022-10-15T02:15:18;76.80;;;21.13;;
37529;SDS011;23374;52.758;6.872;2022-10-15T02:19:47;56.57;;;18.13;;
37529;SDS011;23374;52.758;6.872;2022-10-15T02:22:23;53.23;;;18.97;;
37529;SDS011;23374;52.758;6.872;2022-10-15T02:24:58;64.80;;;19.93;;
37529;SDS011;23374;52.758;6.872;2022-10-15T02:27:25;62.37;;;20.03;;
37529;SDS011;23374;52.758;6.872;2022-10-15T02:29:48;68.63;;;22.10;;
37529;SDS011;23374;52.758;6.872;2022-10-15T02:32:10;66.43;;;19.77;;
37529;SDS011;23374;52.758;6.872;2022-10-15T02:34:33;59.13;;;19.77;;
37529;SDS011;23374;52.758;6.872;2022-10-15T02:36:59;66.07;;;19.43;;
37529;SDS011;23374;52.758;6.872;2022-10-15T02:39:21;60.57;;;18.60;;
37529;SDS011;23374;52.758;6.872;2022-10-15T02:41:43;60.47;;;18.97;;
37529;SDS011;23374;52.758;6.872;2022-10-15T02:44:05;54.83;;;17.73;;
37529;SDS011;23374;52.758;6.872;2022-10-15T02:46:25;60.50;;;18.37;;
37529;SDS011;23374;52.758;6.872;2022-10-15T02:48:46;62.17;;;19.20;;
37529;SDS011;23374;52.758;6.872;2022-10-15T02:51:06;56.20;;;18.83;;
37529;SDS011;23374;52.758;6.872;2022-10-15T02:53:27;50.93;;;18.90;;
37529;SDS011;23374;52.758;6.872;2022-10-15T02:55:47;56.83;;;18.50;;
37529;SDS011;23374;52.758;6.872;2022-10-15T02:58:07;56.57;;;19.50;;
37529;SDS011;23374;52.758;6.872;2022-10-15T03:00:28;59.60;;;20.90;;
37529;SDS011;23374;52.758;6.872;2022-10-15T03:02:48;57.37;;;19.70;;
37529;SDS011;23374;52.758;6.872;2022-10-15T03:05:08;61.90;;;19.70;;
37529;SDS011;23374;52.758;6.872;2022-10-15T03:07:29;52.77;;;18.40;;
37529;SDS011;23374;52.758;6.872;2022-10-15T03:09:50;57.37;;;18.83;;
37529;SDS011;23374;52.758;6.872;2022-10-15T03:12:10;59.87;;;19.97;;
37529;SDS011;23374;52.758;6.872;2022-10-15T03:14:30;59.73;;;18.77;;
37529;SDS011;23374;52.758;6.872;2022-10-15T03:16:50;48.90;;;18.47;;
37529;SDS011;23374;52.758;6.872;2022-10-15T03:19:10;59.73;;;18.93;;
37529;SDS011;23374;52.758;6.872;2022-10-15T03:21:30;57.03;;;18.77;;
37529;SDS011;23374;52.758;6.872;2022-10-15T03:23:50;49.17;;;17.63;;
37529;SDS011;23374;52.758;6.872;2022-10-15T03:26:10;50.33;;;17.80;;
37529;SDS011;23374;52.758;6.872;2022-10-15T03:28:30;52.10;;;18.17;;
37529;SDS011;23374;52.758;6.872;2022-10-15T03:30:51;45.13;;;17.60;;
37529;SDS011;23374;52.758;6.872;2022-10-15T03:33:11;65.57;;;20.17;;
37529;SDS011;23374;52.758;6.872;2022-10-15T03:35:31;54.07;;;18.53;;
37529;SDS011;23374;52.758;6.872;2022-10-15T03:37:52;54.97;;;17.23;;
37529;SDS011;23374;52.758;6.872;2022-10-15T03:40:12;53.10;;;18.73;;
37529;SDS011;23374;52.758;6.872;2022-10-15T03:42:32;56.60;;;19.00;;
37529;SDS011;23374;52.758;6.872;2022-10-15T03:44:52;43.53;;;17.00;;
37529;SDS011;23374;52.758;6.872;2022-10-15T03:47:13;50.23;;;18.23;;
37529;SDS011;23374;52.758;6.872;2022-10-15T03:49:34;48.13;;;17.33;;
37529;SDS011;23374;52.758;6.872;2022-10-15T03:51:54;55.73;;;18.67;;
37529;SDS011;23374;52.758;6.872;2022-10-15T03:54:14;42.70;;;17.70;;
37529;SDS011;23374;52.758;6.872;2022-10-15T03:56:34;48.60;;;17.23;;
37529;SDS011;23374;52.758;6.872;2022-10-15T03:58:55;45.90;;;18.37;;
37529;SDS011;23374;52.758;6.872;2022-10-15T04:01:16;57.30;;;19.03;;
37529;SDS011;23374;52.758;6.872;2022-10-15T04:03:37;48.73;;;17.17;;
37529;SDS011;23374;52.758;6.872;2022-10-15T04:05:58;49.27;;;19.17;;
37529;SDS011;23374;52.758;6.872;2022-10-15T04:08:19;45.13;;;17.10;;
37529;SDS011;23374;52.758;6.872;2022-10-15T04:10:39;47.53;;;17.70;;
37529;SDS011;23374;52.758;6.872;2022-10-15T04:12:59;49.90;;;17.17;;
37529;SDS011;23374;52.758;6.872;2022-10-15T04:15:19;47.60;;;17.53;;
37529;SDS011;23374;52.758;6.872;2022-10-15T04:17:40;53.43;;;18.93;;
37529;SDS011;23374;52.758;6.872;2022-10-15T04:20:00;44.00;;;17.43;;
37529;SDS011;23374;52.758;6.872;2022-10-15T04:22:20;49.47;;;18.10;;
37529;SDS011;23374;52.758;6.872;2022-10-15T04:24:40;46.13;;;16.90;;
37529;SDS011;23374;52.758;6.872;2022-10-15T04:27:00;52.70;;;18.60;;
37529;SDS011;23374;52.758;6.872;2022-10-15T04:29:20;51.17;;;16.97;;
37529;SDS011;23374;52.758;6.872;2022-10-15T04:31:41;45.13;;;17.60;;
37529;SDS011;23374;52.758;6.872;2022-10-15T04:34:02;41.90;;;16.70;;
37529;SDS011;23374;52.758;6.872;2022-10-15T04:36:23;48.33;;;17.83;;
37529;SDS011;23374;52.758;6.872;2022-10-15T04:38:43;42.93;;;17.27;;
37529;SDS011;23374;52.758;6.872;2022-10-15T04:41:06;38.87;;;16.63;;
37529;SDS011;23374;52.758;6.872;2022-10-15T04:43:28;47.87;;;17.63;;
37529;SDS011;23374;52.758;6.872;2022-10-15T04:45:48;45.37;;;18.00;;
37529;SDS011;23374;52.758;6.872;2022-10-15T04:48:09;45.03;;;17.97;;
37529;SDS011;23374;52.758;6.872;2022-10-15T04:50:29;39.60;;;16.20;;
37529;SDS011;23374;52.758;6.872;2022-10-15T04:52:49;42.07;;;17.30;;
37529;SDS011;23374;52.758;6.872;2022-10-15T04:55:09;35.57;;;16.03;;
37529;SDS011;23374;52.758;6.872;2022-10-15T04:57:30;46.23;;;17.83;;
37529;SDS011;23374;52.758;6.872;2022-10-15T04:59:50;41.97;;;16.47;;
37529;SDS011;23374;52.758;6.872;2022-10-15T05:02:11;39.67;;;16.93;;
37529;SDS011;23374;52.758;6.872;2022-10-15T05:04:31;40.20;;;16.33;;
37529;SDS011;23374;52.758;6.872;2022-10-15T05:06:52;47.40;;;17.60;;
37529;SDS011;23374;52.758;6.872;2022-10-15T05:09:12;41.43;;;17.40;;
37529;SDS011;23374;52.758;6.872;2022-10-15T05:11:34;35.97;;;16.43;;
37529;SDS011;23374;52.758;6.872;2022-10-15T05:13:57;42.23;;;17.07;;
37529;SDS011;23374;52.758;6.872;2022-10-15T05:16:22;44.50;;;18.23;;
37529;SDS011;23374;52.758;6.872;2022-10-15T05:18:46;42.50;;;17.93;;
37529;SDS011;23374;52.758;6.872;2022-10-15T05:21:09;49.37;;;18.03;;
37529;SDS011;23374;52.758;6.872;2022-10-15T05:23:30;39.60;;;18.30;;
37529;SDS011;23374;52.758;6.872;2022-10-15T05:25:50;47.17;;;19.97;;
37529;SDS011;23374;52.758;6.872;2022-10-15T05:28:10;45.77;;;19.73;;
37529;SDS011;23374;52.758;6.872;2022-10-15T05:30:30;48.47;;;19.57;;
37529;SDS011;23374;52.758;6.872;2022-10-15T05:32:53;48.43;;;20.10;;
37529;SDS011;23374;52.758;6.872;2022-10-15T05:35:14;45.73;;;19.53;;
37529;SDS011;23374;52.758;6.872;2022-10-15T05:37:34;48.27;;;20.03;;
37529;SDS011;23374;52.758;6.872;2022-10-15T05:39:54;48.40;;;18.57;;
37529;SDS011;23374;52.758;6.872;2022-10-15T05:42:14;47.07;;;19.30;;
37529;SDS011;23374;52.758;6.872;2022-10-15T05:44:35;46.43;;;20.50;;
37529;SDS011;23374;52.758;6.872;2022-10-15T05:46:56;49.07;;;20.37;;
37529;SDS011;23374;52.758;6.872;2022-10-15T05:49:16;47.77;;;19.57;;
37529;SDS011;23374;52.758;6.872;2022-10-15T05:51:37;54.80;;;20.20;;
37529;SDS011;23374;52.758;6.872;2022-10-15T05:53:57;54.20;;;20.47;;
37529;SDS011;23374;52.758;6.872;2022-10-15T05:56:18;54.03;;;20.63;;
37529;SDS011;23374;52.758;6.872;2022-10-15T05:58:38;56.97;;;19.77;;
37529;SDS011;23374;52.758;6.872;2022-10-15T06:01:00;59.77;;;21.33;;
37529;SDS011;23374;52.758;6.872;2022-10-15T06:03:24;57.10;;;20.90;;
37529;SDS011;23374;52.758;6.872;2022-10-15T06:05:45;63.30;;;21.47;;
37529;SDS011;23374;52.758;6.872;2022-10-15T06:08:06;49.57;;;19.60;;
37529;SDS011;23374;52.758;6.872;2022-10-15T06:10:26;58.83;;;21.03;;
37529;SDS011;23374;52.758;6.872;2022-10-15T06:12:49;55.50;;;20.60;;
37529;SDS011;23374;52.758;6.872;2022-10-15T06:15:10;57.30;;;19.93;;
37529;SDS011;23374;52.758;6.872;2022-10-15T06:17:30;62.17;;;20.03;;
37529;SDS011;23374;52.758;6.872;2022-10-15T06:19:51;63.47;;;21.13;;
37529;SDS011;23374;52.758;6.872;2022-10-15T06:22:11;53.50;;;20.07;;
37529;SDS011;23374;52.758;6.872;2022-10-15T06:24:31;68.03;;;20.70;;
37529;SDS011;23374;52.758;6.872;2022-10-15T06:26:51;67.63;;;22.20;;
37529;SDS011;23374;52.758;6.872;2022-10-15T06:29:11;52.37;;;19.80;;
37529;SDS011;23374;52.758;6.872;2022-10-15T06:31:32;56.80;;;20.67;;
37529;SDS011;23374;52.758;6.872;2022-10-15T06:33:52;61.73;;;19.77;;
37529;SDS011;23374;52.758;6.872;2022-10-15T06:36:13;59.60;;;21.07;;
37529;SDS011;23374;52.758;6.872;2022-10-15T06:38:33;55.93;;;20.07;;
37529;SDS011;23374;52.758;6.872;2022-10-15T06:40:54;58.70;;;21.07;;
37529;SDS011;23374;52.758;6.872;2022-10-15T06:43:14;62.53;;;20.50;;
37529;SDS011;23374;52.758;6.872;2022-10-15T06:45:39;53.83;;;20.27;;
37529;SDS011;23374;52.758;6.872;2022-10-15T06:48:04;65.33;;;19.77;;
37529;SDS011;23374;52.758;6.872;2022-10-15T06:50:25;58.93;;;19.90;;
37529;SDS011;23374;52.758;6.872;2022-10-15T06:52:45;61.83;;;21.87;;
37529;SDS011;23374;52.758;6.872;2022-10-15T06:55:06;62.70;;;20.90;;
37529;SDS011;23374;52.758;6.872;2022-10-15T06:57:27;53.40;;;19.80;;
37529;SDS011;23374;52.758;6.872;2022-10-15T06:59:48;68.20;;;20.47;;
37529;SDS011;23374;52.758;6.872;2022-10-15T07:02:09;65.60;;;20.90;;
37529;SDS011;23374;52.758;6.872;2022-10-15T07:04:30;62.00;;;20.20;;
37529;SDS011;23374;52.758;6.872;2022-10-15T07:06:51;61.53;;;21.27;;
37529;SDS011;23374;52.758;6.872;2022-10-15T07:09:11;62.50;;;20.23;;
37529;SDS011;23374;52.758;6.872;2022-10-15T07:11:32;58.80;;;20.47;;
37529;SDS011;23374;52.758;6.872;2022-10-15T07:13:53;61.30;;;20.47;;
37529;SDS011;23374;52.758;6.872;2022-10-15T07:16:16;61.47;;;20.83;;
37529;SDS011;23374;52.758;6.872;2022-10-15T07:18:36;55.13;;;20.27;;
37529;SDS011;23374;52.758;6.872;2022-10-15T07:20:57;56.43;;;20.73;;
37529;SDS011;23374;52.758;6.872;2022-10-15T07:23:18;54.90;;;21.07;;
37529;SDS011;23374;52.758;6.872;2022-10-15T07:25:39;51.83;;;20.00;;
37529;SDS011;23374;52.758;6.872;2022-10-15T07:28:00;53.83;;;19.73;;
37529;SDS011;23374;52.758;6.872;2022-10-15T07:30:21;62.97;;;22.20;;
37529;SDS011;23374;52.758;6.872;2022-10-15T07:32:43;62.57;;;21.70;;
37529;SDS011;23374;52.758;6.872;2022-10-15T07:35:04;69.37;;;23.07;;
37529;SDS011;23374;52.758;6.872;2022-10-15T07:37:25;74.30;;;22.47;;
37529;SDS011;23374;52.758;6.872;2022-10-15T07:39:46;65.73;;;21.90;;
37529;SDS011;23374;52.758;6.872;2022-10-15T07:42:06;63.47;;;22.30;;
37529;SDS011;23374;52.758;6.872;2022-10-15T07:44:27;60.67;;;22.47;;
37529;SDS011;23374;52.758;6.872;2022-10-15T07:46:47;53.60;;;22.00;;
37529;SDS011;23374;52.758;6.872;2022-10-15T07:49:08;64.63;;;22.73;;
37529;SDS011;23374;52.758;6.872;2022-10-15T07:51:29;57.17;;;21.63;;
37529;SDS011;23374;52.758;6.872;2022-10-15T07:53:50;89.67;;;24.30;;
37529;SDS011;23374;52.758;6.872;2022-10-15T07:56:11;79.73;;;23.93;;
37529;SDS011;23374;52.758;6.872;2022-10-15T07:58:33;70.50;;;22.87;;
37529;SDS011;23374;52.758;6.872;2022-10-15T08:01:00;63.57;;;23.63;;
37529;SDS011;23374;52.758;6.872;2022-10-15T08:03:22;77.07;;;23.83;;
37529;SDS011;23374;52.758;6.872;2022-10-15T08:05:42;73.30;;;24.63;;
37529;SDS011;23374;52.758;6.872;2022-10-15T08:08:02;74.97;;;25.17;;
37529;SDS011;23374;52.758;6.872;2022-10-15T08:10:23;68.53;;;23.83;;
37529;SDS011;23374;52.758;6.872;2022-10-15T08:12:43;77.50;;;24.47;;
37529;SDS011;23374;52.758;6.872;2022-10-15T08:15:05;63.43;;;23.93;;
37529;SDS011;23374;52.758;6.872;2022-10-15T08:17:26;65.10;;;24.10;;
37529;SDS011;23374;52.758;6.872;2022-10-15T08:19:46;74.13;;;25.60;;
37529;SDS011;23374;52.758;6.872;2022-10-15T08:22:07;65.67;;;24.07;;
37529;SDS011;23374;52.758;6.872;2022-10-15T08:24:27;61.30;;;24.17;;
37529;SDS011;23374;52.758;6.872;2022-10-15T08:26:48;72.63;;;25.43;;
37529;SDS011;23374;52.758;6.872;2022-10-15T08:29:09;76.33;;;24.43;;
37529;SDS011;23374;52.758;6.872;2022-10-15T08:31:30;77.30;;;23.73;;
37529;SDS011;23374;52.758;6.872;2022-10-15T08:33:50;83.33;;;27.20;;
37529;SDS011;23374;52.758;6.872;2022-10-15T08:36:11;76.00;;;24.83;;
37529;SDS011;23374;52.758;6.872;2022-10-15T08:38:32;75.80;;;25.40;;
37529;SDS011;23374;52.758;6.872;2022-10-15T08:40:54;68.07;;;25.33;;
37529;SDS011;23374;52.758;6.872;2022-10-15T08:43:19;73.97;;;25.30;;
37529;SDS011;23374;52.758;6.872;2022-10-15T08:46:02;71.10;;;24.10;;
37529;SDS011;23374;52.758;6.872;2022-10-15T08:48:30;71.73;;;25.30;;
37529;SDS011;23374;52.758;6.872;2022-10-15T08:51:08;68.53;;;23.67;;
37529;SDS011;23374;52.758;6.872;2022-10-15T08:53:47;56.50;;;22.27;;
37529;SDS011;23374;52.758;6.872;2022-10-15T09:02:20;56.80;;;20.87;;
37529;SDS011;23374;52.758;6.872;2022-10-15T09:05:16;54.70;;;20.67;;
37529;SDS011;23374;52.758;6.872;2022-10-15T09:13:20;47.23;;;19.33;;
37529;SDS011;23374;52.758;6.872;2022-10-15T09:16:22;56.10;;;21.00;;
37529;SDS011;23374;52.758;6.872;2022-10-15T09:18:48;53.87;;;20.90;;
37529;SDS011;23374;52.758;6.872;2022-10-15T09:21:12;52.33;;;20.83;;
37529;SDS011;23374;52.758;6.872;2022-10-15T09:23:33;57.60;;;21.37;;
37529;SDS011;23374;52.758;6.872;2022-10-15T09:35:49;49.50;;;19.67;;
37529;SDS011;23374;52.758;6.872;2022-10-15T09:41:18;55.83;;;21.00;;
37529;SDS011;23374;52.758;6.872;2022-10-15T09:44:02;47.80;;;17.63;;
37529;SDS011;23374;52.758;6.872;2022-10-15T09:46:29;61.37;;;20.53;;
37529;SDS011;23374;52.758;6.872;2022-10-15T09:50:45;55.63;;;20.00;;
37529;SDS011;23374;52.758;6.872;2022-10-15T09:58:54;53.07;;;18.20;;
37529;SDS011;23374;52.758;6.872;2022-10-15T10:01:18;49.80;;;18.77;;
37529;SDS011;23374;52.758;6.872;2022-10-15T10:03:43;46.87;;;18.70;;
37529;SDS011;23374;52.758;6.872;2022-10-15T10:06:06;50.20;;;18.47;;
37529;SDS011;23374;52.758;6.872;2022-10-15T10:08:31;51.13;;;18.47;;
37529;SDS011;23374;52.758;6.872;2022-10-15T10:10:58;49.53;;;18.77;;
37529;SDS011;23374;52.758;6.872;2022-10-15T10:13:43;55.20;;;17.93;;
37529;SDS011;23374;52.758;6.872;2022-10-15T10:16:10;47.60;;;17.60;;
37529;SDS011;23374;52.758;6.872;2022-10-15T10:18:33;46.57;;;17.27;;
37529;SDS011;23374;52.758;6.872;2022-10-15T10:21:00;44.83;;;17.77;;
37529;SDS011;23374;52.758;6.872;2022-10-15T10:23:28;49.37;;;17.10;;
37529;SDS011;23374;52.758;6.872;2022-10-15T10:25:55;44.47;;;16.90;;
37529;SDS011;23374;52.758;6.872;2022-10-15T10:28:56;36.17;;;16.43;;
37529;SDS011;23374;52.758;6.872;2022-10-15T10:31:16;43.00;;;15.60;;
37529;SDS011;23374;52.758;6.872;2022-10-15T10:33:46;40.07;;;15.97;;
37529;SDS011;23374;52.758;6.872;2022-10-15T10:36:20;38.77;;;16.53;;
37529;SDS011;23374;52.758;6.872;2022-10-15T10:39:16;38.53;;;16.07;;
37529;SDS011;23374;52.758;6.872;2022-10-15T10:42:33;36.03;;;14.30;;
37529;SDS011;23374;52.758;6.872;2022-10-15T10:44:54;30.10;;;14.27;;
37529;SDS011;23374;52.758;6.872;2022-10-15T10:47:16;30.93;;;13.83;;
37529;SDS011;23374;52.758;6.872;2022-10-15T10:49:40;30.60;;;13.00;;
37529;SDS011;23374;52.758;6.872;2022-10-15T10:55:12;31.97;;;14.10;;
37529;SDS011;23374;52.758;6.872;2022-10-15T10:57:57;30.83;;;13.43;;
37529;SDS011;23374;52.758;6.872;2022-10-15T11:00:47;28.37;;;12.80;;
37529;SDS011;23374;52.758;6.872;2022-10-15T11:03:39;23.73;;;11.03;;
37529;SDS011;23374;52.758;6.872;2022-10-15T11:21:49;19.57;;;9.47;;
37529;SDS011;23374;52.758;6.872;2022-10-15T11:46:02;18.47;;;7.93;;
37529;SDS011;23374;52.758;6.872;2022-10-15T11:58:11;12.57;;;6.87;;
37529;SDS011;23374;52.758;6.872;2022-10-15T12:01:42;15.13;;;7.07;;
37529;SDS011;23374;52.758;6.872;2022-10-15T12:04:19;13.67;;;7.70;;
37529;SDS011;23374;52.758;6.872;2022-10-15T12:06:51;13.97;;;7.60;;
37529;SDS011;23374;52.758;6.872;2022-10-15T12:09:24;14.40;;;7.63;;
37529;SDS011;23374;52.758;6.872;2022-10-15T12:15:14;17.20;;;8.03;;
37529;SDS011;23374;52.758;6.872;2022-10-15T12:18:37;17.77;;;8.47;;
37529;SDS011;23374;52.758;6.872;2022-10-15T12:21:30;16.20;;;8.20;;
37529;SDS011;23374;52.758;6.872;2022-10-15T12:23:59;14.67;;;7.57;;
37529;SDS011;23374;52.758;6.872;2022-10-15T12:26:30;17.37;;;8.43;;
37529;SDS011;23374;52.758;6.872;2022-10-15T12:28:54;16.07;;;8.60;;
37529;SDS011;23374;52.758;6.872;2022-10-15T12:31:15;15.30;;;8.23;;
37529;SDS011;23374;52.758;6.872;2022-10-15T12:33:46;15.40;;;7.77;;
37529;SDS011;23374;52.758;6.872;2022-10-15T12:36:33;13.67;;;7.73;;
37529;SDS011;23374;52.758;6.872;2022-10-15T12:41:43;16.33;;;8.67;;
37529;SDS011;23374;52.758;6.872;2022-10-15T12:44:29;16.73;;;8.83;;
37529;SDS011;23374;52.758;6.872;2022-10-15T12:46:51;18.67;;;9.80;;
37529;SDS011;23374;52.758;6.872;2022-10-15T12:50:02;22.13;;;10.33;;
37529;SDS011;23374;52.758;6.872;2022-10-15T12:52:50;21.03;;;9.60;;
37529;SDS011;23374;52.758;6.872;2022-10-15T12:55:34;18.97;;;9.73;;
37529;SDS011;23374;52.758;6.872;2022-10-15T13:08:33;20.77;;;10.03;;
37529;SDS011;23374;52.758;6.872;2022-10-15T13:10:56;22.50;;;11.07;;
37529;SDS011;23374;52.758;6.872;2022-10-15T13:13:21;22.97;;;11.70;;
37529;SDS011;23374;52.758;6.872;2022-10-15T13:16:00;21.90;;;11.17;;
37529;SDS011;23374;52.758;6.872;2022-10-15T13:18:26;19.33;;;10.33;;
37529;SDS011;23374;52.758;6.872;2022-10-15T13:20:48;21.50;;;10.90;;
37529;SDS011;23374;52.758;6.872;2022-10-15T13:23:21;20.63;;;11.73;;
37529;SDS011;23374;52.758;6.872;2022-10-15T13:25:46;21.67;;;11.70;;
37529;SDS011;23374;52.758;6.872;2022-10-15T13:28:29;24.37;;;12.67;;
37529;SDS011;23374;52.758;6.872;2022-10-15T13:30:57;22.67;;;12.30;;
37529;SDS011;23374;52.758;6.872;2022-10-15T13:33:18;20.10;;;11.53;;
37529;SDS011;23374;52.758;6.872;2022-10-15T13:35:40;25.13;;;13.30;;
37529;SDS011;23374;52.758;6.872;2022-10-15T13:38:01;21.77;;;12.97;;
37529;SDS011;23374;52.758;6.872;2022-10-15T13:40:25;23.97;;;13.33;;
37529;SDS011;23374;52.758;6.872;2022-10-15T13:43:01;20.87;;;12.27;;
37529;SDS011;23374;52.758;6.872;2022-10-15T13:45:25;20.17;;;12.00;;
37529;SDS011;23374;52.758;6.872;2022-10-15T13:47:47;19.17;;;11.77;;
37529;SDS011;23374;52.758;6.872;2022-10-15T13:50:27;19.20;;;11.13;;
37529;SDS011;23374;52.758;6.872;2022-10-15T13:56:41;14.67;;;9.87;;
37529;SDS011;23374;52.758;6.872;2022-10-15T13:59:05;15.70;;;10.83;;
37529;SDS011;23374;52.758;6.872;2022-10-15T14:01:26;13.70;;;9.23;;
37529;SDS011;23374;52.758;6.872;2022-10-15T14:03:58;16.53;;;10.53;;
37529;SDS011;23374;52.758;6.872;2022-10-15T14:06:32;14.47;;;9.10;;
37529;SDS011;23374;52.758;6.872;2022-10-15T14:08:59;15.10;;;10.10;;
37529;SDS011;23374;52.758;6.872;2022-10-15T14:11:30;17.13;;;10.10;;
37529;SDS011;23374;52.758;6.872;2022-10-15T14:13:54;15.87;;;9.87;;
37529;SDS011;23374;52.758;6.872;2022-10-15T14:16:41;14.13;;;9.60;;
37529;SDS011;23374;52.758;6.872;2022-10-15T14:19:08;11.03;;;7.77;;
37529;SDS011;23374;52.758;6.872;2022-10-15T14:21:30;11.93;;;8.47;;
37529;SDS011;23374;52.758;6.872;2022-10-15T14:24:10;11.53;;;8.10;;
37529;SDS011;23374;52.758;6.872;2022-10-15T14:26:37;10.60;;;6.27;;
37529;SDS011;23374;52.758;6.872;2022-10-15T14:28:58;10.03;;;6.87;;
37529;SDS011;23374;52.758;6.872;2022-10-15T14:31:37;7.33;;;5.67;;
37529;SDS011;23374;52.758;6.872;2022-10-15T14:33:58;8.77;;;5.83;;
37529;SDS011;23374;52.758;6.872;2022-10-15T14:36:27;8.23;;;5.33;;
37529;SDS011;23374;52.758;6.872;2022-10-15T14:38:50;8.27;;;5.07;;
37529;SDS011;23374;52.758;6.872;2022-10-15T14:41:27;8.27;;;4.50;;
37529;SDS011;23374;52.758;6.872;2022-10-15T14:44:14;6.60;;;4.47;;
37529;SDS011;23374;52.758;6.872;2022-10-15T14:46:43;5.80;;;4.27;;
37529;SDS011;23374;52.758;6.872;2022-10-15T14:49:24;7.33;;;4.53;;
37529;SDS011;23374;52.758;6.872;2022-10-15T14:52:03;6.43;;;4.20;;
37529;SDS011;23374;52.758;6.872;2022-10-15T14:54:35;5.83;;;4.33;;
37529;SDS011;23374;52.758;6.872;2022-10-15T14:56:59;7.23;;;4.50;;
37529;SDS011;23374;52.758;6.872;2022-10-15T14:59:28;6.23;;;4.13;;
37529;SDS011;23374;52.758;6.872;2022-10-15T15:01:59;7.50;;;4.50;;
37529;SDS011;23374;52.758;6.872;2022-10-15T15:04:35;6.10;;;4.00;;
37529;SDS011;23374;52.758;6.872;2022-10-15T15:07:09;5.97;;;3.87;;
37529;SDS011;23374;52.758;6.872;2022-10-15T15:09:35;7.70;;;4.13;;
37529;SDS011;23374;52.758;6.872;2022-10-15T15:11:58;4.97;;;3.17;;
37529;SDS011;23374;52.758;6.872;2022-10-15T15:14:22;4.60;;;3.40;;
37529;SDS011;23374;52.758;6.872;2022-10-15T15:16:44;6.07;;;4.17;;
37529;SDS011;23374;52.758;6.872;2022-10-15T15:19:07;5.37;;;3.60;;
37529;SDS011;23374;52.758;6.872;2022-10-15T15:21:27;5.67;;;3.83;;
37529;SDS011;23374;52.758;6.872;2022-10-15T15:23:48;4.43;;;3.17;;
37529;SDS011;23374;52.758;6.872;2022-10-15T15:26:08;5.73;;;3.23;;
37529;SDS011;23374;52.758;6.872;2022-10-15T15:28:29;6.53;;;3.30;;
37529;SDS011;23374;52.758;6.872;2022-10-15T15:31:03;4.13;;;2.77;;
37529;SDS011;23374;52.758;6.872;2022-10-15T15:33:26;7.53;;;2.87;;
37529;SDS011;23374;52.758;6.872;2022-10-15T15:35:49;5.90;;;2.67;;
37529;SDS011;23374;52.758;6.872;2022-10-15T15:38:14;3.53;;;2.43;;
37529;SDS011;23374;52.758;6.872;2022-10-15T15:40:37;3.93;;;2.40;;
37529;SDS011;23374;52.758;6.872;2022-10-15T15:42:57;3.83;;;2.27;;
37529;SDS011;23374;52.758;6.872;2022-10-15T15:45:23;4.43;;;2.90;;
37529;SDS011;23374;52.758;6.872;2022-10-15T15:47:45;4.67;;;2.83;;
37529;SDS011;23374;52.758;6.872;2022-10-15T15:50:07;4.93;;;3.00;;
37529;SDS011;23374;52.758;6.872;2022-10-15T15:52:27;5.63;;;3.03;;
37529;SDS011;23374;52.758;6.872;2022-10-15T15:54:48;4.97;;;2.97;;
37529;SDS011;23374;52.758;6.872;2022-10-15T15:57:08;6.53;;;2.90;;
37529;SDS011;23374;52.758;6.872;2022-10-15T15:59:28;5.87;;;3.07;;
37529;SDS011;23374;52.758;6.872;2022-10-15T16:01:48;6.10;;;2.90;;
37529;SDS011;23374;52.758;6.872;2022-10-15T16:04:09;5.33;;;3.17;;
37529;SDS011;23374;52.758;6.872;2022-10-15T16:06:29;5.17;;;2.93;;
37529;SDS011;23374;52.758;6.872;2022-10-15T16:08:50;5.03;;;3.07;;
37529;SDS011;23374;52.758;6.872;2022-10-15T16:11:11;5.80;;;3.27;;
37529;SDS011;23374;52.758;6.872;2022-10-15T16:13:32;5.60;;;3.37;;
37529;SDS011;23374;52.758;6.872;2022-10-15T16:15:53;7.03;;;3.00;;
37529;SDS011;23374;52.758;6.872;2022-10-15T16:18:13;4.53;;;3.00;;
37529;SDS011;23374;52.758;6.872;2022-10-15T16:20:33;4.73;;;3.40;;
37529;SDS011;23374;52.758;6.872;2022-10-15T16:22:58;5.20;;;3.33;;
37529;SDS011;23374;52.758;6.872;2022-10-15T16:25:18;6.93;;;4.10;;
37529;SDS011;23374;52.758;6.872;2022-10-15T16:27:39;5.27;;;3.70;;
37529;SDS011;23374;52.758;6.872;2022-10-15T16:30:01;5.40;;;3.77;;
37529;SDS011;23374;52.758;6.872;2022-10-15T16:32:22;6.90;;;4.20;;